Time;durP1;ratioP1;P1;durP2;ratioP2;P2;SDS_P1;SDS_P2;PMS_P1;PMS_P2;Temp;Humidity;BMP_temperature;BMP_pressure;BME280_temperature;BME280_humidity;BME280_pressure;Samples;Min_cycle;Max_cycle;Signal;HPM_P1;HPM_P2
2023/09/17 00:02:14;;;;;;;4.47;2.47;;;25.90;30.10;;;;;;4931969;29;20195;-74
2023/09/17 00:04:41;;;;;;;3.40;2.40;;;26.20;30.00;;;;;;4931111;29;20664;-74
2023/09/17 00:07:09;;;;;;;3.17;2.47;;;26.20;29.60;;;;;;4929127;29;20408;-73
2023/09/17 00:09:37;;;;;;;5.87;2.30;;;26.40;29.30;;;;;;4930532;29;20180;-72
2023/09/17 00:12:05;;;;;;;5.43;2.90;;;26.50;29.10;;;;;;4932385;29;20184;-75
2023/09/17 00:14:32;;;;;;;4.03;2.37;;;26.60;29.30;;;;;;4926409;29;20703;-74
2023/09/17 00:16:59;;;;;;;4.20;2.40;;;26.80;28.60;;;;;;4934798;29;20596;-74
2023/09/17 00:19:27;;;;;;;7.20;2.30;;;26.90;28.60;;;;;;4929707;29;20179;-75
2023/09/17 00:21:54;;;;;;;3.97;2.30;;;27.00;28.80;;;;;;4916973;29;20180;-74
2023/09/17 00:24:22;;;;;;;5.03;2.40;;;27.10;28.10;;;;;;4930249;28;20263;-75
2023/09/17 00:26:49;;;;;;;3.50;2.47;;;27.10;27.20;;;;;;4930447;29;20190;-73
2023/09/17 00:29:16;;;;;;;4.17;2.30;;;27.20;27.70;;;;;;4932530;29;20192;-74
2023/09/17 00:31:44;;;;;;;4.03;2.70;;;27.00;27.70;;;;;;4914253;29;20184;-76
2023/09/17 00:34:11;;;;;;;4.57;2.37;;;27.20;27.70;;;;;;4928370;29;20188;-77
2023/09/17 00:36:38;;;;;;;5.33;2.20;;;27.50;27.10;;;;;;4929212;29;20618;-75
2023/09/17 00:39:06;;;;;;;5.60;2.27;;;27.40;26.70;;;;;;4931846;29;20215;-74
2023/09/17 00:41:34;;;;;;;3.73;2.23;;;27.60;26.30;;;;;;4933602;29;20184;-74
2023/09/17 00:44:02;;;;;;;4.53;2.40;;;27.80;26.60;;;;;;4930397;29;20191;-74
2023/09/17 00:46:31;;;;;;;7.23;2.63;;;27.80;26.40;;;;;;4931175;29;20233;-72
2023/09/17 00:49:00;;;;;;;5.77;2.30;;;27.80;26.30;;;;;;4932549;29;20667;-74
2023/09/17 00:51:27;;;;;;;4.57;2.43;;;28.00;26.30;;;;;;4926116;29;20192;-73
2023/09/17 00:53:58;;;;;;;6.53;2.60;;;28.00;26.30;;;;;;4933202;29;20234;-72
2023/09/17 00:56:26;;;;;;;5.10;2.47;;;28.10;26.00;;;;;;4933364;29;20212;-75
2023/09/17 00:58:56;;;;;;;5.93;2.30;;;28.00;26.20;;;;;;4931521;29;20184;-75
2023/09/17 01:01:23;;;;;;;4.10;2.10;;;28.20;26.00;;;;;;4934315;29;20184;-72
2023/09/17 01:03:51;;;;;;;3.33;2.23;;;28.30;25.20;;;;;;4935267;29;20180;-74
2023/09/17 01:06:19;;;;;;;5.90;2.60;;;28.40;24.70;;;;;;4934558;29;20223;-74
2023/09/17 01:08:46;;;;;;;5.10;2.50;;;28.60;24.90;;;;;;4936566;29;20222;-74
2023/09/17 01:11:14;;;;;;;2.73;2.10;;;28.80;24.80;;;;;;4931266;29;20565;-72
2023/09/17 01:13:58;;;;;;;2.87;2.27;;;28.90;24.10;;;;;;4935318;29;20243;-76
2023/09/17 01:16:28;;;;;;;3.90;2.27;;;29.00;24.40;;;;;;4930738;29;20238;-75
2023/09/17 01:18:55;;;;;;;4.03;2.30;;;29.00;24.00;;;;;;4934328;29;20187;-75
2023/09/17 01:21:36;;;;;;;6.03;2.77;;;29.20;23.70;;;;;;4932136;29;20242;-75
2023/09/17 01:24:21;;;;;;;5.53;2.30;;;29.10;23.00;;;;;;4932243;29;20227;-76
2023/09/17 01:27:09;;;;;;;3.93;2.27;;;29.30;23.20;;;;;;4933101;29;20544;-75
2023/09/17 01:29:38;;;;;;;5.43;2.40;;;29.40;22.90;;;;;;4936093;29;20195;-74
2023/09/17 01:32:07;;;;;;;6.23;2.43;;;29.60;22.60;;;;;;4938097;29;20206;-75
2023/09/17 01:34:39;;;;;;;3.03;2.07;;;29.80;22.20;;;;;;4936110;29;20280;-74
2023/09/17 01:37:32;;;;;;;4.00;2.40;;;29.80;21.80;;;;;;4935903;29;20320;-76
2023/09/17 01:40:14;;;;;;;3.80;2.27;;;29.90;22.40;;;;;;4925294;29;20592;-75
2023/09/17 01:42:44;;;;;;;2.40;1.70;;;30.10;22.00;;;;;;4935409;29;20207;-75
2023/09/17 01:45:14;;;;;;;2.30;1.70;;;30.20;20.20;;;;;;4935172;29;20283;-76
2023/09/17 01:47:46;;;;;;;5.53;2.37;;;29.90;20.70;;;;;;4934393;29;21005;-73
2023/09/17 01:50:17;;;;;;;3.00;2.05;;;30.10;20.60;;;;;;4935562;29;20192;-72
2023/09/17 01:52:45;;;;;;;3.10;2.00;;;30.00;20.20;;;;;;4936080;29;20184;-75
2023/09/17 01:55:12;;;;;;;2.37;1.70;;;30.10;19.60;;;;;;4933920;29;20214;-73
2023/09/17 01:57:41;;;;;;;3.35;1.70;;;30.30;19.90;;;;;;4935403;29;20196;-76
2023/09/17 02:00:18;;;;;;;3.30;1.65;;;30.50;19.90;;;;;;4932200;29;20184;-74
2023/09/17 02:02:53;;;;;;;2.13;1.60;;;30.80;19.40;;;;;;4930660;29;20569;-74
2023/09/17 02:05:21;;;;;;;2.22;1.45;;;30.90;18.00;;;;;;4929298;29;20223;-74
2023/09/17 02:07:48;;;;;;;5.30;2.10;;;31.10;17.80;;;;;;4934139;29;20282;-75
2023/09/17 02:10:16;;;;;;;2.00;1.80;;;31.30;18.70;;;;;;4935647;29;20192;-75
2023/09/17 02:12:43;;;;;;;2.63;1.85;;;31.20;19.10;;;;;;4934968;29;20191;-75
2023/09/17 02:15:10;;;;;;;5.88;1.85;;;31.40;19.00;;;;;;4934253;29;20683;-77
2023/09/17 02:17:39;;;;;;;1.50;1.35;;;31.50;18.30;;;;;;4932597;29;20196;-74
2023/09/17 02:20:08;;;;;;;2.58;1.88;;;31.50;17.60;;;;;;4929864;29;20648;-74
2023/09/17 02:22:35;;;;;;;3.17;1.42;;;31.80;17.50;;;;;;4935080;29;20262;-74
2023/09/17 02:25:03;;;;;;;1.65;1.40;;;31.60;17.70;;;;;;4933536;29;20211;-74
2023/09/17 02:27:31;;;;;;;2.35;1.60;;;31.90;18.10;;;;;;4932508;29;20192;-74
2023/09/17 02:29:58;;;;;;;1.77;1.50;;;32.10;17.80;;;;;;4932970;29;20240;-75
2023/09/17 02:32:26;;;;;;;2.80;1.80;;;32.10;17.60;;;;;;4930224;29;20184;-75
2023/09/17 02:34:53;;;;;;;2.70;1.70;;;32.50;17.70;;;;;;4925026;29;20721;-74
2023/09/17 02:37:20;;;;;;;2.58;1.30;;;32.60;17.10;;;;;;4934596;29;20610;-75
2023/09/17 02:39:48;;;;;;;1.73;1.35;;;32.30;16.60;;;;;;4931164;29;20236;-73
2023/09/17 02:42:16;;;;;;;2.88;1.38;;;32.50;17.00;;;;;;4934830;29;20270;-75
2023/09/17 02:44:43;;;;;;;3.60;2.17;;;32.80;16.90;;;;;;4933833;29;20187;-72
2023/09/17 02:47:11;;;;;;;4.38;1.55;;;32.60;16.80;;;;;;4935472;29;20243;-73
2023/09/17 02:49:38;;;;;;;2.35;1.48;;;32.40;17.50;;;;;;4931568;29;20256;-76
2023/09/17 02:52:06;;;;;;;4.88;1.70;;;32.90;17.20;;;;;;4930015;29;20544;-75
2023/09/17 02:54:34;;;;;;;1.30;1.10;;;33.10;16.70;;;;;;4933642;29;20660;-75
2023/09/17 02:57:02;;;;;;;3.53;1.48;;;33.10;16.60;;;;;;4934308;29;20603;-76
2023/09/17 02:59:29;;;;;;;4.07;1.40;;;33.30;16.50;;;;;;4936222;29;20484;-76
2023/09/17 03:01:57;;;;;;;1.80;1.40;;;33.10;16.10;;;;;;4935062;29;20188;-76
2023/09/17 03:04:26;;;;;;;2.60;1.15;;;33.30;16.40;;;;;;4928420;29;20188;-75
2023/09/17 03:06:53;;;;;;;1.67;1.38;;;33.40;16.20;;;;;;4934775;29;20286;-74
2023/09/17 03:09:21;;;;;;;4.38;1.25;;;33.20;16.90;;;;;;4935287;29;20247;-75
2023/09/17 03:11:48;;;;;;;3.67;1.30;;;33.40;16.50;;;;;;4934280;29;20283;-76
2023/09/17 03:14:16;;;;;;;2.90;1.30;;;33.40;16.70;;;;;;4932266;29;20227;-75
2023/09/17 03:16:43;;;;;;;1.17;1.08;;;33.50;16.70;;;;;;4933963;29;20263;-77
2023/09/17 03:19:12;;;;;;;1.75;1.35;;;33.60;16.30;;;;;;4934887;29;20184;-75
2023/09/17 03:21:41;;;;;;;1.63;1.20;;;33.30;16.30;;;;;;4931419;29;20239;-74
2023/09/17 03:24:09;;;;;;;1.77;1.20;;;33.80;16.20;;;;;;4934830;29;20196;-71
2023/09/17 03:26:38;;;;;;;1.80;1.25;;;34.30;16.00;;;;;;4933678;29;20283;-74
2023/09/17 03:29:07;;;;;;;2.17;1.60;;;34.30;15.70;;;;;;4935054;29;20195;-73
2023/09/17 03:31:36;;;;;;;1.70;1.17;;;34.20;16.10;;;;;;4932217;29;20647;-74
2023/09/17 03:34:04;;;;;;;1.80;1.13;;;34.50;16.10;;;;;;4929412;29;20188;-72
2023/09/17 03:36:35;;;;;;;2.67;1.40;;;34.50;15.70;;;;;;4931432;29;20252;-73
2023/09/17 03:39:11;;;;;;;4.53;1.15;;;34.60;15.80;;;;;;4930196;29;20188;-73
2023/09/17 03:41:40;;;;;;;2.72;1.40;;;34.80;15.70;;;;;;4918384;29;20192;-75
2023/09/17 03:44:11;;;;;;;1.58;1.30;;;34.90;15.20;;;;;;4927896;29;20193;-73
2023/09/17 03:46:39;;;;;;;1.75;1.10;;;35.10;15.00;;;;;;4933195;29;20191;-74
2023/09/17 03:49:06;;;;;;;4.05;1.10;;;35.00;15.20;;;;;;4934239;29;20195;-75
2023/09/17 03:51:34;;;;;;;1.10;1.00;;;34.90;15.00;;;;;;4934376;29;20270;-74
2023/09/17 03:54:05;;;;;;;3.95;1.10;;;34.80;15.10;;;;;;4933797;29;20338;-75
2023/09/17 03:56:35;;;;;;;1.23;0.90;;;35.00;14.90;;;;;;4932429;29;20223;-74
2023/09/17 03:59:03;;;;;;;2.85;1.10;;;34.70;15.00;;;;;;4931721;29;20658;-73
2023/09/17 04:01:32;;;;;;;1.48;1.20;;;35.30;14.90;;;;;;4933384;29;20194;-74
2023/09/17 04:03:59;;;;;;;1.13;0.95;;;35.90;14.80;;;;;;4930289;29;20188;-75
2023/09/17 04:06:28;;;;;;;3.63;1.02;;;36.40;14.30;;;;;;4932202;29;20188;-72
2023/09/17 04:08:55;;;;;;;2.03;1.30;;;36.50;14.00;;;;;;4933811;29;20215;-71
2023/09/17 04:11:23;;;;;;;3.90;2.08;;;36.40;14.00;;;;;;4932793;29;20190;-71
2023/09/17 04:13:50;;;;;;;3.72;2.35;;;36.30;14.40;;;;;;4933662;29;20188;-71
2023/09/17 04:16:21;;;;;;;5.03;1.50;;;36.60;13.70;;;;;;4932421;29;20219;-70
2023/09/17 04:18:49;;;;;;;1.25;1.00;;;36.20;14.40;;;;;;4934135;29;20206;-71
2023/09/17 04:21:16;;;;;;;1.42;1.30;;;36.20;13.60;;;;;;4932882;29;20267;-71
2023/09/17 04:23:44;;;;;;;1.80;1.52;;;36.10;13.80;;;;;;4931862;29;20180;-72
2023/09/17 04:26:13;;;;;;;1.65;1.30;;;35.40;14.70;;;;;;4932618;29;20204;-73
2023/09/17 04:28:40;;;;;;;5.20;1.30;;;35.40;15.00;;;;;;4935126;29;20651;-73
2023/09/17 04:31:08;;;;;;;2.90;1.48;;;35.50;15.30;;;;;;4934737;29;20260;-73
2023/09/17 04:33:35;;;;;;;3.42;1.35;;;35.60;15.30;;;;;;4936819;29;20190;-73
2023/09/17 04:36:03;;;;;;;1.00;0.90;;;36.10;14.60;;;;;;4935497;29;20239;-71
2023/09/17 04:38:31;;;;;;;2.35;1.30;;;36.10;14.10;;;;;;4933654;29;20651;-73
2023/09/17 04:40:58;;;;;;;1.60;1.00;;;36.20;14.00;;;;;;4935273;29;20184;-71
2023/09/17 04:43:26;;;;;;;1.50;1.30;;;36.30;13.70;;;;;;4935717;29;20614;-74
2023/09/17 04:45:54;;;;;;;2.58;1.27;;;36.60;14.00;;;;;;4932800;29;20248;-75
2023/09/17 04:48:21;;;;;;;1.60;0.95;;;36.60;14.50;;;;;;4936777;29;20188;-72
2023/09/17 04:50:48;;;;;;;3.00;0.90;;;36.90;13.30;;;;;;4936178;29;20199;-71
2023/09/17 04:53:16;;;;;;;2.35;1.33;;;37.40;13.20;;;;;;4936865;29;20582;-73
2023/09/17 04:55:44;;;;;;;3.42;1.38;;;37.40;13.30;;;;;;4933702;29;20227;-72
2023/09/17 04:58:13;;;;;;;2.42;1.23;;;37.50;13.60;;;;;;4938642;29;20191;-73
2023/09/17 05:00:40;;;;;;;1.83;1.38;;;37.90;12.80;;;;;;4932418;29;20292;-74
2023/09/17 05:03:08;;;;;;;5.07;0.90;;;37.40;13.00;;;;;;4931615;29;20589;-71
2023/09/17 05:05:35;;;;;;;1.55;0.90;;;37.70;12.40;;;;;;4934971;29;20677;-71
2023/09/17 05:08:03;;;;;;;4.35;0.98;;;37.70;12.60;;;;;;4936798;29;20634;-72
2023/09/17 05:10:30;;;;;;;1.70;0.80;;;37.70;12.60;;;;;;4936704;29;20186;-71
2023/09/17 05:12:57;;;;;;;1.42;1.10;;;37.30;12.40;;;;;;4936813;29;20307;-72
2023/09/17 05:15:25;;;;;;;1.10;0.90;;;37.40;12.40;;;;;;4936256;29;20246;-73
2023/09/17 05:17:52;;;;;;;1.17;0.85;;;37.60;12.90;;;;;;4936600;29;20282;-72
2023/09/17 05:20:21;;;;;;;1.02;0.90;;;37.70;12.50;;;;;;4936786;29;20661;-73
2023/09/17 05:22:48;;;;;;;1.25;0.80;;;38.00;12.60;;;;;;4936514;29;20655;-71
2023/09/17 05:25:16;;;;;;;2.10;1.00;;;37.90;11.80;;;;;;4936680;29;20299;-72
2023/09/17 05:27:43;;;;;;;1.23;0.93;;;38.10;12.20;;;;;;4936378;29;20187;-71
2023/09/17 05:30:12;;;;;;;1.23;1.00;;;38.30;11.70;;;;;;4936818;29;20195;-73
2023/09/17 05:32:39;;;;;;;1.27;0.90;;;38.90;11.80;;;;;;4936295;29;20188;-73
2023/09/17 05:35:07;;;;;;;0.75;0.68;;;38.90;11.20;;;;;;4930410;29;20306;-73
2023/09/17 05:37:35;;;;;;;3.15;0.80;;;38.00;10.90;;;;;;4930369;29;20187;-74
2023/09/17 05:40:03;;;;;;;2.03;0.95;;;38.40;10.90;;;;;;4931700;29;20207;-73
2023/09/17 05:42:31;;;;;;;1.75;0.93;;;38.90;10.00;;;;;;4930777;29;20199;-72
2023/09/17 05:44:58;;;;;;;0.80;0.73;;;39.30;9.90;;;;;;4935793;29;20188;-73
2023/09/17 05:47:25;;;;;;;1.05;0.95;;;39.30;9.90;;;;;;4935841;29;20184;-73
2023/09/17 05:49:55;;;;;;;1.20;0.82;;;39.30;10.30;;;;;;4935133;29;20222;-72
2023/09/17 05:52:22;;;;;;;0.75;0.75;;;38.90;10.40;;;;;;4930938;29;20184;-72
2023/09/17 05:54:50;;;;;;;1.92;1.08;;;38.90;10.60;;;;;;4935411;29;20267;-72
2023/09/17 05:57:17;;;;;;;1.17;0.82;;;39.00;10.40;;;;;;4935994;29;20555;-71
2023/09/17 05:59:45;;;;;;;2.03;0.70;;;38.90;10.50;;;;;;4934869;29;20192;-72
2023/09/17 06:02:12;;;;;;;1.20;0.90;;;39.00;10.10;;;;;;4935686;29;20180;-72
2023/09/17 06:04:40;;;;;;;0.98;0.80;;;39.70;10.00;;;;;;4935659;29;20203;-71
2023/09/17 06:07:07;;;;;;;2.42;0.90;;;39.30;9.90;;;;;;4935429;29;20296;-72
2023/09/17 06:09:34;;;;;;;1.60;0.80;;;39.40;9.80;;;;;;4935024;29;20535;-72
2023/09/17 06:12:02;;;;;;;1.17;0.90;;;39.20;9.80;;;;;;4935865;29;20191;-72
2023/09/17 06:14:29;;;;;;;2.03;0.80;;;39.30;9.90;;;;;;4934002;29;20184;-72
2023/09/17 06:16:56;;;;;;;3.60;1.10;;;39.60;10.00;;;;;;4936208;29;20192;-71
2023/09/17 06:19:23;;;;;;;1.35;1.00;;;39.60;10.10;;;;;;4935751;29;20184;-72
2023/09/17 06:21:51;;;;;;;4.45;0.90;;;39.70;9.80;;;;;;4935172;29;20231;-72
2023/09/17 06:24:18;;;;;;;1.30;0.60;;;39.50;9.70;;;;;;4935377;29;20191;-72
2023/09/17 06:26:46;;;;;;;1.40;0.80;;;37.90;10.20;;;;;;4934773;29;20188;-71
2023/09/17 06:29:13;;;;;;;1.58;0.80;;;37.50;9.90;;;;;;4935852;29;20283;-70
2023/09/17 06:31:41;;;;;;;0.60;0.50;;;38.00;10.40;;;;;;4934774;29;20195;-71
2023/09/17 06:34:09;;;;;;;3.03;0.70;;;38.00;9.80;;;;;;4935392;29;20546;-71
2023/09/17 06:36:38;;;;;;;1.10;0.85;;;38.60;9.90;;;;;;4930473;29;20220;-73
2023/09/17 06:39:08;;;;;;;0.65;0.60;;;37.70;10.40;;;;;;4933630;29;20184;-70
2023/09/17 06:41:35;;;;;;;0.88;0.80;;;37.20;10.20;;;;;;4928411;29;20196;-71
2023/09/17 06:44:02;;;;;;;0.82;0.70;;;37.00;10.50;;;;;;4932260;29;20187;-70
2023/09/17 06:46:30;;;;;;;3.05;0.82;;;36.40;10.40;;;;;;4934824;29;20192;-71
2023/09/17 06:48:57;;;;;;;0.80;0.60;;;36.60;10.60;;;;;;4935660;29;20576;-74
2023/09/17 06:51:24;;;;;;;2.10;0.90;;;36.50;11.10;;;;;;4934835;29;20223;-71
2023/09/17 06:53:52;;;;;;;1.02;0.80;;;36.60;11.20;;;;;;4933598;29;20552;-71
2023/09/17 06:56:19;;;;;;;0.90;0.52;;;36.40;11.30;;;;;;4935360;29;20914;-70
2023/09/17 06:58:46;;;;;;;1.17;0.80;;;36.00;11.60;;;;;;4935107;29;20274;-72
2023/09/17 07:01:14;;;;;;;3.50;0.80;;;35.90;11.90;;;;;;4935086;29;20238;-71
2023/09/17 07:03:41;;;;;;;2.03;1.10;;;36.20;12.10;;;;;;4933528;29;20275;-73
2023/09/17 07:06:08;;;;;;;2.97;1.20;;;36.70;12.00;;;;;;4935201;29;20191;-72
2023/09/17 07:08:36;;;;;;;3.13;1.80;;;36.40;13.30;;;;;;4933052;29;20211;-72
2023/09/17 07:11:04;;;;;;;3.70;2.40;;;35.70;16.30;;;;;;4934953;29;20195;-73
2023/09/17 07:13:31;;;;;;;8.75;3.00;;;35.70;16.90;;;;;;4934592;29;20570;-73
2023/09/17 07:15:59;;;;;;;7.47;3.05;;;35.60;17.10;;;;;;4934667;29;20216;-72
2023/09/17 07:18:30;;;;;;;8.40;2.92;;;34.50;18.20;;;;;;4929356;29;20185;-72
2023/09/17 07:20:57;;;;;;;9.73;3.00;;;33.40;19.50;;;;;;4934178;29;20180;-73
2023/09/17 07:23:25;;;;;;;4.30;3.00;;;32.30;21.10;;;;;;4932947;29;20180;-72
2023/09/17 07:25:52;;;;;;;10.55;3.33;;;31.40;22.30;;;;;;4934426;29;20239;-72
2023/09/17 07:28:20;;;;;;;6.60;2.80;;;30.70;23.10;;;;;;4934597;29;20252;-72
2023/09/17 07:30:52;;;;;;;7.95;2.70;;;30.30;23.70;;;;;;4934480;29;20192;-73
2023/09/17 07:33:20;;;;;;;8.80;3.10;;;30.10;24.10;;;;;;4934549;29;20643;-73
2023/09/17 07:35:48;;;;;;;6.15;2.83;;;29.80;24.80;;;;;;4933965;29;20266;-73
2023/09/17 07:38:15;;;;;;;4.65;2.95;;;29.60;25.20;;;;;;4933997;29;20183;-73
2023/09/17 07:40:43;;;;;;;6.17;2.43;;;29.30;25.60;;;;;;4932457;29;20187;-73
2023/09/17 07:43:10;;;;;;;5.73;2.60;;;29.00;26.30;;;;;;4932430;29;20248;-72
2023/09/17 07:45:38;;;;;;;11.47;2.97;;;28.80;27.00;;;;;;4934094;29;20192;-73
2023/09/17 07:48:05;;;;;;;5.10;3.00;;;28.40;27.20;;;;;;4934301;29;20203;-73
2023/09/17 07:50:33;;;;;;;8.80;3.30;;;28.10;27.70;;;;;;4933989;29;20251;-73
2023/09/17 07:53:02;;;;;;;9.83;3.53;;;27.90;28.60;;;;;;4933891;29;20195;-72
2023/09/17 07:55:29;;;;;;;7.13;3.03;;;27.70;29.30;;;;;;4932888;29;20666;-73
2023/09/17 07:57:57;;;;;;;7.13;3.43;;;27.50;30.00;;;;;;4933568;29;20235;-73
2023/09/17 08:00:25;;;;;;;8.43;3.70;;;27.40;30.40;;;;;;4931713;29;20196;-73
2023/09/17 08:02:52;;;;;;;9.40;3.93;;;27.20;30.60;;;;;;4935429;29;20283;-74
2023/09/17 08:05:19;;;;;;;7.30;4.03;;;27.10;31.10;;;;;;4940238;29;20182;-73
2023/09/17 08:07:47;;;;;;;6.13;4.00;;;27.00;31.70;;;;;;4939391;29;20192;-73
2023/09/17 08:10:15;;;;;;;9.90;4.87;;;26.80;32.30;;;;;;4922156;29;20583;-74
2023/09/17 08:12:42;;;;;;;8.60;5.20;;;26.60;33.30;;;;;;4940107;29;20547;-74
2023/09/17 08:15:09;;;;;;;9.03;6.33;;;26.40;34.00;;;;;;4939614;29;20262;-74
2023/09/17 08:17:37;;;;;;;14.60;6.97;;;26.30;34.60;;;;;;4938308;29;20254;-74
2023/09/17 08:20:09;;;;;;;10.90;5.93;;;26.30;34.90;;;;;;4938478;29;20187;-72
2023/09/17 08:22:37;;;;;;;17.40;11.57;;;26.30;35.60;;;;;;4937417;29;20192;-72
2023/09/17 08:25:08;;;;;;;21.83;11.60;;;26.10;36.30;;;;;;4938521;29;20513;-73
2023/09/17 08:27:36;;;;;;;23.87;9.60;;;26.10;36.70;;;;;;4933750;29;20638;-73
2023/09/17 08:30:11;;;;;;;15.07;5.13;;;26.00;36.90;;;;;;4933534;29;20278;-73
2023/09/17 08:32:40;;;;;;;10.90;5.90;;;25.80;37.30;;;;;;4931061;29;20617;-72
2023/09/17 08:35:08;;;;;;;18.97;8.53;;;25.80;37.80;;;;;;4930028;29;20288;-74
2023/09/17 08:37:39;;;;;;;13.23;7.17;;;25.70;38.30;;;;;;4938600;29;20180;-73
2023/09/17 08:40:09;;;;;;;15.17;9.83;;;25.50;38.70;;;;;;4938078;29;20183;-74
2023/09/17 08:42:41;;;;;;;29.97;20.00;;;25.40;39.20;;;;;;4938811;29;20271;-74
2023/09/17 08:45:09;;;;;;;28.17;17.10;;;25.30;39.30;;;;;;4933592;29;20292;-73
2023/09/17 08:47:37;;;;;;;27.87;15.63;;;25.10;40.20;;;;;;4934629;29;20243;-73
2023/09/17 08:50:09;;;;;;;16.10;10.47;;;25.00;40.80;;;;;;4937716;29;20195;-73
2023/09/17 08:52:41;;;;;;;15.33;9.60;;;24.90;41.30;;;;;;4938381;29;20184;-73
2023/09/17 08:55:26;;;;;;;12.63;7.63;;;24.80;41.90;;;;;;4939427;29;20223;-72
2023/09/17 08:57:59;;;;;;;17.17;8.30;;;24.80;42.20;;;;;;4930527;29;20188;-74
2023/09/17 09:00:32;;;;;;;13.00;7.90;;;24.70;42.60;;;;;;4936119;29;20243;-73
2023/09/17 09:03:04;;;;;;;14.30;7.00;;;24.60;43.20;;;;;;4938684;29;20315;-72
2023/09/17 09:05:35;;;;;;;14.20;7.83;;;24.50;43.30;;;;;;4937831;29;20267;-74
2023/09/17 09:08:04;;;;;;;14.60;7.77;;;24.40;43.70;;;;;;4939675;29;20281;-73
2023/09/17 09:10:31;;;;;;;16.70;8.03;;;24.30;43.80;;;;;;4937210;29;20187;-72
2023/09/17 09:13:11;;;;;;;17.17;10.03;;;24.20;44.30;;;;;;4938078;29;20184;-73
2023/09/17 09:15:40;;;;;;;14.83;8.53;;;24.10;44.30;;;;;;4935051;29;20222;-73
2023/09/17 09:18:10;;;;;;;15.37;7.63;;;23.90;45.20;;;;;;4936720;29;20180;-75
2023/09/17 09:20:39;;;;;;;18.90;12.40;;;23.80;45.20;;;;;;4934136;29;20674;-74
2023/09/17 09:23:10;;;;;;;16.60;9.20;;;23.80;45.60;;;;;;4934399;29;20689;-74
2023/09/17 09:25:37;;;;;;;14.97;7.20;;;23.70;45.60;;;;;;4929943;29;20188;-73
2023/09/17 09:28:08;;;;;;;16.93;7.97;;;23.60;45.90;;;;;;4935550;29;20180;-73
2023/09/17 09:30:37;;;;;;;14.07;6.93;;;23.60;46.30;;;;;;4933914;29;20203;-74
2023/09/17 09:33:05;;;;;;;12.87;6.97;;;23.50;46.30;;;;;;4935530;29;20180;-74
2023/09/17 09:35:32;;;;;;;9.73;5.57;;;23.50;46.70;;;;;;4934375;29;20614;-73
2023/09/17 09:38:02;;;;;;;15.53;7.03;;;23.40;46.80;;;;;;4935391;29;20188;-73
2023/09/17 09:40:34;;;;;;;15.33;6.30;;;23.30;46.70;;;;;;4934513;29;20267;-74
2023/09/17 09:43:03;;;;;;;15.93;6.07;;;23.20;47.10;;;;;;4935808;29;20223;-74
2023/09/17 09:45:30;;;;;;;9.67;6.10;;;23.20;47.10;;;;;;4933921;29;20195;-73
2023/09/17 09:47:58;;;;;;;11.67;5.87;;;23.20;47.50;;;;;;4929768;29;20220;-74
2023/09/17 09:50:31;;;;;;;12.77;7.63;;;23.10;47.70;;;;;;4929529;29;20192;-73
2023/09/17 09:52:59;;;;;;;19.13;6.63;;;23.00;47.50;;;;;;4931132;29;20619;-73
2023/09/17 09:55:29;;;;;;;15.63;6.33;;;23.00;46.90;;;;;;4935048;29;20224;-74
2023/09/17 09:58:00;;;;;;;17.07;7.00;;;23.00;47.60;;;;;;4931394;29;20180;-74
2023/09/17 10:00:29;;;;;;;12.73;6.73;;;22.90;47.60;;;;;;4935501;29;20188;-73
2023/09/17 10:02:57;;;;;;;11.80;5.67;;;22.90;47.50;;;;;;4936541;29;20188;-74
2023/09/17 10:05:39;;;;;;;9.97;4.70;;;22.90;47.90;;;;;;4932785;29;20287;-74
2023/09/17 10:08:12;;;;;;;19.50;6.17;;;22.80;47.70;;;;;;4928700;29;20244;-73
2023/09/17 10:10:41;;;;;;;9.50;4.50;;;22.80;48.00;;;;;;4935004;29;20179;-73
2023/09/17 10:13:10;;;;;;;14.10;5.23;;;22.80;48.00;;;;;;4936076;29;20278;-73
2023/09/17 10:15:41;;;;;;;14.50;7.07;;;22.80;48.00;;;;;;4932259;29;20220;-74
2023/09/17 10:18:12;;;;;;;15.53;6.23;;;22.80;48.20;;;;;;4932983;29;20289;-74
2023/09/17 10:20:44;;;;;;;19.00;7.43;;;22.80;48.40;;;;;;4934436;29;20751;-73
2023/09/17 10:23:15;;;;;;;15.80;6.37;;;22.70;48.90;;;;;;4930942;29;20191;-74
2023/09/17 10:25:44;;;;;;;13.93;5.37;;;22.70;48.70;;;;;;4911752;29;20577;-73
2023/09/17 10:28:12;;;;;;;14.95;6.30;;;22.50;49.40;;;;;;4935313;29;20414;-74
2023/09/17 10:30:43;;;;;;;15.87;6.67;;;22.40;49.70;;;;;;4934107;29;20673;-73
2023/09/17 10:33:13;;;;;;;16.63;7.90;;;22.40;49.80;;;;;;4917318;29;20222;-74
2023/09/17 10:35:40;;;;;;;16.60;7.13;;;22.30;49.80;;;;;;4927157;29;20738;-74
2023/09/17 10:38:09;;;;;;;16.60;7.50;;;22.30;50.50;;;;;;4911077;29;20607;-74
2023/09/17 10:40:38;;;;;;;19.27;7.53;;;22.20;50.50;;;;;;4901573;29;20197;-74
2023/09/17 10:43:07;;;;;;;17.20;8.47;;;22.20;50.90;;;;;;4903242;29;20237;-74
2023/09/17 10:45:39;;;;;;;15.67;7.13;;;22.00;51.30;;;;;;4902474;29;20217;-74
2023/09/17 10:48:08;;;;;;;18.43;6.60;;;22.00;51.70;;;;;;4912195;29;20212;-74
2023/09/17 10:50:36;;;;;;;13.77;6.70;;;21.90;52.10;;;;;;4900991;29;20687;-74
2023/09/17 10:53:10;;;;;;;17.80;8.23;;;21.80;52.50;;;;;;4906065;29;20195;-73
2023/09/17 10:55:42;;;;;;;22.50;7.07;;;21.80;52.70;;;;;;4901074;29;20312;-72
2023/09/17 10:58:26;;;;;;;17.37;8.50;;;21.80;52.60;;;;;;4916033;29;20196;-75
2023/09/17 11:00:56;;;;;;;14.40;8.77;;;21.80;52.70;;;;;;4911879;29;20196;-76
2023/09/17 11:03:25;;;;;;;15.90;7.47;;;21.70;53.00;;;;;;4913361;29;20548;-76
2023/09/17 11:05:59;;;;;;;16.83;7.73;;;21.70;52.70;;;;;;4912863;29;20207;-74
2023/09/17 11:08:26;;;;;;;15.87;7.83;;;21.60;52.90;;;;;;4912350;29;20197;-74
2023/09/17 11:10:54;;;;;;;14.33;7.47;;;21.40;53.00;;;;;;4915959;29;20268;-75
2023/09/17 11:13:23;;;;;;;13.50;7.30;;;21.40;53.20;;;;;;4913593;29;20548;-74
2023/09/17 11:15:54;;;;;;;16.63;8.57;;;21.30;53.20;;;;;;4911974;29;20602;-74
2023/09/17 11:18:22;;;;;;;18.97;7.50;;;21.30;53.30;;;;;;4916091;29;20192;-75
2023/09/17 11:21:09;;;;;;;21.33;7.37;;;21.30;53.60;;;;;;4912396;29;20192;-74
2023/09/17 11:23:39;;;;;;;15.20;6.87;;;21.20;53.70;;;;;;4913260;29;20184;-75
2023/09/17 11:26:07;;;;;;;14.27;7.20;;;21.20;53.50;;;;;;4913904;29;20184;-75
2023/09/17 11:28:39;;;;;;;18.57;7.07;;;21.20;53.90;;;;;;4913630;29;20200;-75
2023/09/17 11:31:09;;;;;;;11.77;6.23;;;21.10;53.30;;;;;;4909124;29;20330;-75
2023/09/17 11:33:38;;;;;;;13.43;7.57;;;21.10;53.30;;;;;;4915697;29;20263;-75
2023/09/17 11:36:06;;;;;;;15.93;7.77;;;21.00;54.60;;;;;;4924352;29;20231;-75
2023/09/17 11:38:33;;;;;;;15.57;7.00;;;21.00;53.90;;;;;;4930450;29;20239;-75
2023/09/17 11:41:08;;;;;;;17.77;7.20;;;20.90;54.00;;;;;;4929081;29;20831;-74
2023/09/17 11:43:47;;;;;;;14.97;6.93;;;20.80;54.80;;;;;;4924851;29;20195;-75
2023/09/17 11:46:16;;;;;;;14.27;6.73;;;20.80;54.80;;;;;;4930717;29;20191;-75
2023/09/17 11:48:52;;;;;;;15.00;8.23;;;20.70;55.40;;;;;;4934286;29;20779;-76
2023/09/17 11:51:22;;;;;;;16.70;8.00;;;20.60;55.50;;;;;;4910614;29;20187;-75
2023/09/17 11:54:08;;;;;;;12.17;7.03;;;20.60;55.30;;;;;;4931959;29;20188;-75
2023/09/17 11:56:47;;;;;;;15.33;8.20;;;20.60;55.10;;;;;;4930666;29;20224;-76
2023/09/17 11:59:18;;;;;;;16.87;7.80;;;20.60;54.80;;;;;;4933453;29;20191;-75
2023/09/17 12:01:50;;;;;;;15.17;7.07;;;20.60;55.00;;;;;;4932842;29;20195;-74
2023/09/17 12:04:18;;;;;;;11.73;6.70;;;20.60;55.40;;;;;;4932842;29;20195;-74
2023/09/17 12:06:48;;;;;;;11.17;6.47;;;20.50;55.50;;;;;;4929394;29;20279;-74
2023/09/17 12:10:02;;;;;;;12.17;6.10;;;20.50;56.00;;;;;;4932774;29;20199;-74
2023/09/17 12:12:04;;;;;;;13.23;6.60;;;20.50;56.40;;;;;;4926105;29;20222;-75
2023/09/17 12:14:33;;;;;;;15.23;7.50;;;20.40;56.50;;;;;;4933063;29;20183;-74
2023/09/17 12:17:02;;;;;;;15.37;8.00;;;20.30;56.80;;;;;;4931863;29;20216;-74
2023/09/17 12:19:30;;;;;;;14.80;7.23;;;20.30;56.90;;;;;;4932076;29;20203;-74
2023/09/17 12:21:59;;;;;;;12.93;7.70;;;20.30;57.30;;;;;;4929679;29;20239;-75
2023/09/17 12:24:56;;;;;;;15.13;7.10;;;20.30;57.40;;;;;;4933010;29;20271;-73
2023/09/17 12:27:35;;;;;;;20.37;7.30;;;20.30;57.70;;;;;;4933276;29;20598;-75
2023/09/17 12:30:08;;;;;;;14.43;6.97;;;20.20;57.80;;;;;;4928827;29;20196;-74
2023/09/17 12:32:36;;;;;;;16.03;7.23;;;20.20;57.80;;;;;;4933682;29;20283;-74
2023/09/17 12:35:05;;;;;;;17.60;6.90;;;20.00;58.10;;;;;;4933553;29;20207;-74
2023/09/17 12:37:33;;;;;;;19.47;8.47;;;20.00;58.60;;;;;;4931609;29;20189;-73
2023/09/17 12:40:01;;;;;;;17.23;6.77;;;19.90;59.50;;;;;;4933570;29;20184;-73
2023/09/17 12:42:28;;;;;;;16.93;7.53;;;19.80;59.70;;;;;;4931018;29;20192;-74
2023/09/17 12:44:56;;;;;;;13.60;7.20;;;19.80;60.20;;;;;;4933345;29;20180;-74
2023/09/17 12:47:24;;;;;;;17.60;7.67;;;19.80;60.30;;;;;;4927343;29;20719;-74
2023/09/17 12:49:55;;;;;;;14.27;8.40;;;19.70;59.80;;;;;;4934758;29;20195;-74
2023/09/17 12:52:23;;;;;;;16.07;8.47;;;19.80;57.90;;;;;;4936074;29;20192;-73
2023/09/17 12:54:59;;;;;;;13.13;6.70;;;19.90;57.30;;;;;;4930703;29;20184;-74